| time (UTC) | temp C | wind direction | speed KPH | gust KPH | rain 1hr cm | rain 24hr cm | rain mn cm | humidity % | barometer mb |
| 20260503212008 | 26 | 145 | 3.2 | 14.5 | 0.00 | 0.00 | 0.00 | 35 | 1012.3 |
| 20260503211521 | 26 | 221 | 4.8 | 16.1 | 0.00 | 0.00 | 0.00 | 36 | 1012.4 |
| 20260503211006 | 26 | 271 | 9.7 | 16.1 | 0.00 | 0.00 | 0.00 | 36 | 1012.4 |
| 20260503210505 | 26 | 137 | 6.4 | 14.5 | 0.00 | 0.00 | 0.00 | 37 | 1012.4 |
| 20260503210023 | 26 | 140 | 9.7 | 14.5 | 0.00 | 0.00 | 0.00 | 36 | 1012.5 |
| 20260503205507 | 26 | 138 | 4.8 | 9.7 | 0.00 | 0.00 | 0.00 | 36 | 1012.5 |
| 20260503205003 | 26 | 148 | 1.6 | 12.9 | 0.00 | 0.00 | 0.00 | 37 | 1012.5 |
| 20260503204525 | 26 | 248 | 6.4 | 12.9 | 0.00 | 0.00 | 0.00 | 37 | 1012.7 |
| 20260503204003 | 26 | 129 | 8.0 | 16.1 | 0.00 | 0.00 | 0.00 | 39 | 1012.6 |
| 20260503203504 | 26 | 240 | 6.4 | 16.1 | 0.00 | 0.00 | 0.00 | 38 | 1012.8 |
| 20260503203020 | 25 | 158 | 1.6 | 12.9 | 0.00 | 0.00 | 0.00 | 39 | 1012.7 |
| 20260503202503 | 25 | 150 | 6.4 | 11.3 | 0.00 | 0.00 | 0.00 | 39 | 1012.7 |
| 20260503202006 | 25 | 157 | 1.6 | 11.3 | 0.00 | 0.00 | 0.00 | 41 | 1012.8 |
| 20260503201518 | 25 | 207 | 3.2 | 14.5 | 0.00 | 0.00 | 0.00 | 40 | 1012.8 |
| 20260503201008 | 25 | 224 | 4.8 | 14.5 | 0.00 | 0.00 | 0.00 | 42 | 1013.0 |
| 20260503200508 | 25 | 98 | 0.0 | 9.7 | 0.00 | 0.00 | 0.00 | 41 | 1013.0 |
| 20260503200021 | 25 | 146 | 6.4 | 12.9 | 0.00 | 0.00 | 0.00 | 42 | 1013.1 |
| 20260503195506 | 24 | 203 | 6.4 | 12.9 | 0.00 | 0.00 | 0.00 | 42 | 1013.2 |
| 20260503195012 | 24 | 123 | 4.8 | 12.9 | 0.00 | 0.00 | 0.00 | 44 | 1013.2 |
| 20260503194524 | 23 | 207 | 4.8 | 12.9 | 0.00 | 0.00 | 0.00 | 43 | 1013.4 |
| 20260503194010 | 23 | 231 | 6.4 | 12.9 | 0.00 | 0.00 | 0.00 | 45 | 1013.4 |
| 20260503193513 | 23 | 203 | 6.4 | 12.9 | 0.00 | 0.00 | 0.00 | 46 | 1013.5 |
| 20260503193011 | 23 | 143 | 0.0 | 12.9 | 0.00 | 0.00 | 0.00 | 48 | 1013.5 |
| 20260503192509 | 23 | 212 | 4.8 | 16.1 | 0.00 | 0.00 | 0.00 | 47 | 1013.6 |
| 20260503192005 | 23 | 137 | 4.8 | 16.1 | 0.00 | 0.00 | 0.00 | 47 | 1013.6 |
| 20260503191518 | 23 | 160 | 4.8 | 14.5 | 0.00 | 0.00 | 0.00 | 48 | 1013.7 |
| 20260503191007 | 22 | 187 | 3.2 | 12.9 | 0.00 | 0.00 | 0.00 | 49 | 1013.7 |
| 20260503190506 | 22 | 199 | 4.8 | 19.3 | 0.00 | 0.00 | 0.00 | 48 | 1013.7 |
| 20260503190016 | 22 | 180 | 4.8 | 19.3 | 0.00 | 0.00 | 0.00 | 49 | 1013.8 |
| 20260503185506 | 22 | 204 | 8.0 | 19.3 | 0.00 | 0.00 | 0.00 | 48 | 1013.9 |
| 20260503185006 | 22 | 220 | 11.3 | 17.7 | 0.00 | 0.00 | 0.00 | 47 | 1013.9 |
| 20260503184520 | 22 | 149 | 3.2 | 17.7 | 0.00 | 0.00 | 0.00 | 48 | 1013.9 |
| 20260503184012 | 22 | 159 | 6.4 | 17.7 | 0.00 | 0.00 | 0.00 | 47 | 1013.9 |
| 20260503183513 | 22 | 205 | 3.2 | 16.1 | 0.00 | 0.00 | 0.00 | 49 | 1014.0 |
| 20260503183036 | 22 | 144 | 1.6 | 11.3 | 0.00 | 0.00 | 0.00 | 49 | 1014.0 |
| 20260503182509 | 22 | 208 | 4.8 | 12.9 | 0.00 | 0.00 | 0.00 | 47 | 1014.0 |
| 20260503182010 | 22 | 167 | 4.8 | 12.9 | 0.00 | 0.00 | 0.00 | 48 | 1014.0 |
| 20260503181527 | 22 | 160 | 3.2 | 16.1 | 0.00 | 0.00 | 0.00 | 50 | 1014.0 |
| 20260503181003 | 21 | 136 | 6.4 | 16.1 | 0.00 | 0.00 | 0.00 | 49 | 1014.1 |
| 20260503180503 | 22 | 172 | 3.2 | 11.3 | 0.00 | 0.00 | 0.00 | 49 | 1014.1 |
| 20260503180019 | 21 | 130 | 3.2 | 11.3 | 0.00 | 0.00 | 0.00 | 48 | 1014.1 |
| 20260503175506 | 22 | 182 | 1.6 | 9.7 | 0.00 | 0.00 | 0.00 | 50 | 1014.1 |
| 20260503175006 | 21 | 158 | 3.2 | 9.7 | 0.00 | 0.00 | 0.00 | 50 | 1014.1 |
| 20260503174517 | 21 | 203 | 4.8 | 9.7 | 0.00 | 0.00 | 0.00 | 50 | 1014.2 |
| 20260503174008 | 21 | 227 | 0.0 | 4.8 | 0.00 | 0.00 | 0.00 | 54 | 1014.1 |
| 20260503173507 | 21 | 94 | 1.6 | 12.9 | 0.00 | 0.00 | 0.00 | 53 | 1014.3 |
| 20260503173024 | 21 | 252 | 4.8 | 12.9 | 0.00 | 0.00 | 0.00 | 53 | 1014.3 |
| 20260503172506 | 20 | 224 | 1.6 | 8.0 | 0.00 | 0.00 | 0.00 | 55 | 1014.3 |
| 20260503172011 | 20 | 169 | 3.2 | 8.0 | 0.00 | 0.00 | 0.00 | 55 | 1014.4 |
| 20260503171524 | 20 | 204 | 1.6 | 14.5 | 0.00 | 0.00 | 0.00 | 56 | 1014.5 |
| 20260503171010 | 20 | 236 | 4.8 | 14.5 | 0.00 | 0.00 | 0.00 | 55 | 1014.5 |
| 20260503170511 | 20 | 224 | 1.6 | 9.7 | 0.00 | 0.00 | 0.00 | 56 | 1014.6 |
| 20260503151004 | 13 | 234 | 3.2 | 8.0 | 0.00 | 0.00 | 0.00 | 79 | 1014.9 |
| 20260503150503 | 13 | 211 | 4.8 | 9.7 | 0.00 | 0.00 | 0.00 | 79 | 1014.9 |
| 20260503131010 | 8 | 191 | 0.0 | 0.0 | 0.00 | 0.00 | 0.00 | 91 | 1014.5 |
| 20260503130507 | 8 | 191 | 0.0 | 0.0 | 0.00 | 0.00 | 0.00 | 90 | 1014.5 |
| 20260503110503 | 8 | 194 | 0.0 | 0.0 | 0.00 | 0.00 | 0.00 | 88 | 1014.9 |
| 20260503090509 | 10 | 205 | 0.0 | 0.0 | 0.00 | 0.00 | 0.00 | 84 | 1015.0 |
| 20260503081514 | 10 | 173 | 0.0 | 0.0 | 0.00 | 0.00 | 0.00 | 83 | 1015.0 |
| 20260503081006 | 10 | 173 | 0.0 | 0.0 | 0.00 | 0.00 | 0.00 | 83 | 1015.0 |
| 20260503080507 | 10 | 173 | 0.0 | 0.0 | 0.00 | 0.00 | 0.00 | 83 | 1015.0 |
| 20260503072503 | 11 | 349 | 0.0 | 0.0 | 0.00 | 0.00 | 0.00 | 81 | 1015.0 |
| 20260503072002 | 11 | 347 | 0.0 | 0.0 | 0.00 | 0.00 | 0.00 | 80 | 1014.9 |
| 20260503071507 | 11 | 347 | 0.0 | 0.0 | 0.00 | 0.00 | 0.00 | 80 | 1014.9 |
| 20260503071002 | 11 | 347 | 0.0 | 0.0 | 0.00 | 0.00 | 0.00 | 80 | 1014.9 |
| 20260503070502 | 11 | 347 | 0.0 | 0.0 | 0.00 | 0.00 | 0.00 | 79 | 1014.9 |
| 20260503055002 | 13 | 347 | 0.0 | 0.0 | 0.00 | 0.00 | 0.00 | 72 | 1014.9 |
| 20260503054507 | 13 | 347 | 0.0 | 0.0 | 0.00 | 0.00 | 0.00 | 70 | 1014.9 |
| 20260503054006 | 13 | 347 | 0.0 | 0.0 | 0.00 | 0.00 | 0.00 | 71 | 1014.9 |
| 20260503053501 | 13 | 347 | 0.0 | 0.0 | 0.00 | 0.00 | 0.00 | 71 | 1014.9 |
| 20260503053002 | 13 | 347 | 0.0 | 0.0 | 0.00 | 0.00 | 0.00 | 70 | 1014.9 |
| 20260503052501 | 14 | 347 | 0.0 | 0.0 | 0.00 | 0.00 | 0.00 | 70 | 1014.9 |
| 20260503052002 | 14 | 347 | 0.0 | 0.0 | 0.00 | 0.00 | 0.00 | 69 | 1015.0 |
| 20260503051507 | 14 | 347 | 0.0 | 0.0 | 0.00 | 0.00 | 0.00 | 69 | 1014.9 |
| 20260503051001 | 15 | 347 | 0.0 | 0.0 | 0.00 | 0.00 | 0.00 | 67 | 1015.0 |
| 20260503050503 | 15 | 347 | 0.0 | 0.0 | 0.00 | 0.00 | 0.00 | 66 | 1014.9 |
| 20260503050025 | 15 | 347 | 0.0 | 0.0 | 0.00 | 0.00 | 0.00 | 66 | 1014.9 |
| 20260503045507 | 15 | 347 | 0.0 | 0.0 | 0.00 | 0.00 | 0.00 | 65 | 1014.8 |
| 20260503045010 | 15 | 347 | 0.0 | 0.0 | 0.00 | 0.00 | 0.00 | 64 | 1014.7 |
| 20260503044516 | 15 | 347 | 0.0 | 0.0 | 0.00 | 0.00 | 0.00 | 63 | 1014.6 |
| 20260503044005 | 16 | 347 | 0.0 | 0.0 | 0.00 | 0.00 | 0.00 | 62 | 1014.6 |
| 20260503043506 | 16 | 347 | 0.0 | 0.0 | 0.00 | 0.00 | 0.00 | 60 | 1014.6 |
| 20260503043002 | 16 | 347 | 0.0 | 0.0 | 0.00 | 0.00 | 0.00 | 61 | 1014.5 |
| 20260503042502 | 16 | 347 | 0.0 | 0.0 | 0.00 | 0.00 | 0.00 | 56 | 1014.5 |
| 20260503042001 | 16 | 347 | 0.0 | 0.0 | 0.00 | 0.00 | 0.00 | 56 | 1014.4 |
| 20260503041508 | 16 | 349 | 0.0 | 0.0 | 0.00 | 0.00 | 0.00 | 57 | 1014.4 |
| 20260503041003 | 17 | 350 | 0.0 | 0.0 | 0.00 | 0.00 | 0.00 | 55 | 1014.3 |
| 20260503040502 | 17 | 259 | 0.0 | 0.0 | 0.00 | 0.00 | 0.00 | 53 | 1014.3 |
| 20260503040007 | 17 | 242 | 0.0 | 0.0 | 0.00 | 0.00 | 0.00 | 53 | 1014.2 |
| 20260503035503 | 17 | 245 | 0.0 | 0.0 | 0.00 | 0.00 | 0.00 | 52 | 1014.1 |
| 20260503035004 | 18 | 253 | 0.0 | 1.6 | 0.00 | 0.00 | 0.00 | 51 | 1014.1 |
| 20260503034512 | 18 | 253 | 0.0 | 3.2 | 0.00 | 0.00 | 0.00 | 50 | 1014.0 |
| 20260503034006 | 18 | 219 | 0.0 | 3.2 | 0.00 | 0.00 | 0.00 | 51 | 1014.0 |
| 20260503033504 | 18 | 147 | 0.0 | 0.0 | 0.00 | 0.00 | 0.00 | 50 | 1013.9 |
| 20260503033023 | 19 | 202 | 0.0 | 4.8 | 0.00 | 0.00 | 0.00 | 49 | 1013.8 |
| 20260503032510 | 19 | 207 | 1.6 | 4.8 | 0.00 | 0.00 | 0.00 | 48 | 1013.8 |
| 20260503032017 | 19 | 141 | 1.6 | 4.8 | 0.00 | 0.00 | 0.00 | 48 | 1013.8 |
| 20260503031520 | 20 | 148 | 0.0 | 8.0 | 0.00 | 0.00 | 0.00 | 48 | 1013.7 |
| 20260503031005 | 20 | 181 | 4.8 | 8.0 | 0.00 | 0.00 | 0.00 | 46 | 1013.7 |
| 20260503030504 | 20 | 181 | 0.0 | 4.8 | 0.00 | 0.00 | 0.00 | 47 | 1013.6 |
| 20260503030007 | 20 | 139 | 1.6 | 8.0 | 0.00 | 0.00 | 0.00 | 46 | 1013.6 |
| 20260503025502 | 20 | 211 | 1.6 | 12.9 | 0.00 | 0.00 | 0.00 | 46 | 1013.5 |
| 20260503025002 | 20 | 173 | 4.8 | 12.9 | 0.00 | 0.00 | 0.00 | 45 | 1013.5 |
| 20260503024509 | 21 | 172 | 1.6 | 8.0 | 0.00 | 0.00 | 0.00 | 46 | 1013.6 |
| 20260503024003 | 21 | 165 | 3.2 | 8.0 | 0.00 | 0.00 | 0.00 | 46 | 1013.5 |
| 20260503023505 | 21 | 153 | 4.8 | 8.0 | 0.00 | 0.00 | 0.00 | 45 | 1013.5 |
| 20260503023014 | 21 | 110 | 3.2 | 12.9 | 0.00 | 0.00 | 0.00 | 45 | 1013.5 |
| 20260503022506 | 21 | 198 | 4.8 | 14.5 | 0.00 | 0.00 | 0.00 | 46 | 1013.4 |
| 20260503022007 | 21 | 193 | 3.2 | 16.1 | 0.00 | 0.00 | 0.00 | 46 | 1013.4 |
| 20260503021520 | 21 | 223 | 6.4 | 16.1 | 0.00 | 0.00 | 0.00 | 46 | 1013.5 |
| 20260503021006 | 21 | 221 | 3.2 | 12.9 | 0.00 | 0.00 | 0.00 | 47 | 1013.5 |
| 20260503020509 | 21 | 162 | 4.8 | 14.5 | 0.00 | 0.00 | 0.00 | 46 | 1013.5 |
| 20260503020024 | 21 | 203 | 6.4 | 14.5 | 0.00 | 0.00 | 0.00 | 48 | 1013.5 |
| 20260503015509 | 21 | 202 | 3.2 | 19.3 | 0.00 | 0.00 | 0.00 | 48 | 1013.5 |
| 20260503015002 | 22 | 190 | 3.2 | 19.3 | 0.00 | 0.00 | 0.00 | 49 | 1013.6 |
| 20260503014505 | 22 | 184 | 4.8 | 19.3 | 0.00 | 0.00 | 0.00 | 49 | 1013.6 |
| 20260503014002 | 22 | 164 | 4.8 | 19.3 | 0.00 | 0.00 | 0.00 | 50 | 1013.6 |
| 20260503013502 | 22 | 185 | 6.4 | 17.7 | 0.00 | 0.00 | 0.00 | 49 | 1013.6 |
| 20260503013020 | 22 | 136 | 8.0 | 16.1 | 0.00 | 0.00 | 0.00 | 49 | 1013.6 |
| 20260503012503 | 22 | 148 | 8.0 | 17.7 | 0.00 | 0.00 | 0.00 | 49 | 1013.7 |
| 20260503012008 | 22 | 141 | 4.8 | 17.7 | 0.00 | 0.00 | 0.00 | 50 | 1013.7 |
| 20260503011521 | 22 | 188 | 6.4 | 14.5 | 0.00 | 0.00 | 0.00 | 49 | 1013.7 |
| 20260503011004 | 22 | 217 | 8.0 | 16.1 | 0.00 | 0.00 | 0.00 | 49 | 1013.7 |
| 20260503010503 | 22 | 141 | 9.7 | 16.1 | 0.00 | 0.00 | 0.00 | 49 | 1013.7 |
| 20260503010020 | 22 | 131 | 6.4 | 19.3 | 0.00 | 0.00 | 0.00 | 48 | 1013.7 |
| 20260503005507 | 22 | 151 | 6.4 | 19.3 | 0.00 | 0.00 | 0.00 | 49 | 1013.7 |
| 20260503005009 | 22 | 156 | 6.4 | 16.1 | 0.00 | 0.00 | 0.00 | 49 | 1013.8 |
| 20260503004524 | 22 | 184 | 6.4 | 20.9 | 0.00 | 0.00 | 0.00 | 49 | 1013.7 |
| 20260503004007 | 22 | 159 | 9.7 | 20.9 | 0.00 | 0.00 | 0.00 | 49 | 1013.8 |
| 20260503003508 | 22 | 190 | 6.4 | 20.9 | 0.00 | 0.00 | 0.00 | 50 | 1013.7 |
| 20260503003004 | 22 | 223 | 6.4 | 16.1 | 0.00 | 0.00 | 0.00 | 51 | 1013.7 |
| 20260503002502 | 22 | 146 | 4.8 | 17.7 | 0.00 | 0.00 | 0.00 | 52 | 1013.7 |
| 20260503002005 | 22 | 221 | 9.7 | 17.7 | 0.00 | 0.00 | 0.00 | 51 | 1013.8 |
| 20260503001511 | 22 | 193 | 8.0 | 17.7 | 0.00 | 0.00 | 0.00 | 51 | 1013.7 |
| 20260503001004 | 22 | 146 | 8.0 | 17.7 | 0.00 | 0.00 | 0.00 | 51 | 1013.7 |
| 20260503000506 | 23 | 127 | 6.4 | 16.1 | 0.00 | 0.00 | 0.00 | 51 | 1013.8 |
| 20260503000016 | 22 | 194 | 8.0 | 16.1 | 0.00 | 0.00 | 0.00 | 52 | 1013.8 |
| 20260502235504 | 23 | 203 | 8.0 | 14.5 | 0.00 | 0.00 | 0.00 | 52 | 1013.8 |
| 20260502235004 | 23 | 233 | 3.2 | 20.9 | 0.00 | 0.00 | 0.00 | 52 | 1013.9 |
| 20260502234521 | 22 | 227 | 6.4 | 20.9 | 0.00 | 0.00 | 0.00 | 53 | 1014.0 |
| 20260502234006 | 22 | 176 | 4.8 | 20.9 | 0.00 | 0.00 | 0.00 | 53 | 1014.1 |
| 20260502233510 | 22 | 220 | 4.8 | 20.9 | 0.00 | 0.00 | 0.00 | 54 | 1014.1 |
| 20260502233024 | 22 | 225 | 11.3 | 19.3 | 0.00 | 0.00 | 0.00 | 54 | 1014.2 |
| 20260502232507 | 22 | 227 | 9.7 | 19.3 | 0.00 | 0.00 | 0.00 | 53 | 1014.3 |
| 20260502232010 | 22 | 293 | 6.4 | 16.1 | 0.00 | 0.00 | 0.00 | 54 | 1014.3 |
| 20260502231538 | 22 | 240 | 6.4 | 16.1 | 0.00 | 0.00 | 0.00 | 54 | 1014.4 |
| 20260502231005 | 22 | 275 | 8.0 | 16.1 | 0.00 | 0.00 | 0.00 | 53 | 1014.4 |
| 20260502230506 | 22 | 245 | 6.4 | 16.1 | 0.00 | 0.00 | 0.00 | 53 | 1014.5 |
| 20260502230011 | 22 | 163 | 6.4 | 19.3 | 0.00 | 0.00 | 0.00 | 53 | 1014.6 |
| 20260502225507 | 22 | 141 | 6.4 | 24.1 | 0.00 | 0.00 | 0.00 | 53 | 1014.7 |
| 20260502225007 | 22 | 182 | 9.7 | 24.1 | 0.00 | 0.00 | 0.00 | 53 | 1014.8 |
| 20260502224516 | 22 | 191 | 6.4 | 14.5 | 0.00 | 0.00 | 0.00 | 53 | 1014.8 |
| 20260502224005 | 22 | 169 | 6.4 | 22.5 | 0.00 | 0.00 | 0.00 | 52 | 1014.7 |
| 20260502223502 | 22 | 276 | 6.4 | 22.5 | 0.00 | 0.00 | 0.00 | 50 | 1014.8 |
| 20260502223005 | 22 | 98 | 9.7 | 19.3 | 0.00 | 0.00 | 0.00 | 50 | 1014.9 |
| 20260502222502 | 22 | 100 | 6.4 | 17.7 | 0.00 | 0.00 | 0.00 | 51 | 1014.9 |
| 20260502222002 | 22 | 229 | 4.8 | 17.7 | 0.00 | 0.00 | 0.00 | 51 | 1015.0 |
| 20260502221506 | 22 | 174 | 3.2 | 17.7 | 0.00 | 0.00 | 0.00 | 51 | 1015.1 |
| 20260502221002 | 22 | 158 | 4.8 | 14.5 | 0.00 | 0.00 | 0.00 | 51 | 1015.2 |
| 20260502220502 | 22 | 199 | 8.0 | 14.5 | 0.00 | 0.00 | 0.00 | 52 | 1015.2 |
| 20260502220005 | 22 | 148 | 1.6 | 11.3 | 0.00 | 0.00 | 0.00 | 51 | 1015.2 |
| 20260502215502 | 22 | 223 | 3.2 | 20.9 | 0.00 | 0.00 | 0.00 | 50 | 1015.3 |
| 20260502215003 | 22 | 198 | 8.0 | 20.9 | 0.00 | 0.00 | 0.00 | 52 | 1015.3 |
| 20260502214506 | 21 | 229 | 3.2 | 20.9 | 0.00 | 0.00 | 0.00 | 54 | 1015.3 |
| 20260502214005 | 21 | 87 | 8.0 | 20.9 | 0.00 | 0.00 | 0.00 | 53 | 1015.4 |
| 20260502213505 | 21 | 117 | 8.0 | 14.5 | 0.00 | 0.00 | 0.00 | 54 | 1015.4 |
| 20260502213006 | 21 | 199 | 4.8 | 17.7 | 0.00 | 0.00 | 0.00 | 55 | 1015.5 |
| 20260502212504 | 21 | 207 | 6.4 | 19.3 | 0.00 | 0.00 | 0.00 | 55 | 1015.6 |